Airfield :
LOGIN :

Register | Disclaimer

   EN    FR    IT 

 










Legend :    VFR   Marginal VFR   IFR   Intensive IFR   Very Intensive IFR
Visi :
Ceiling :
>= 8 km
>= 3000ft
5 to 8 km
1000 to 3000 ft
1500m to 5 km
500 to 1000 ft
800 to 1500m
200 to 500 ft
< 800m
< 200 ft
Symbols :   Thunderstorms  Fog  Heavy snow  Heavy precipitations  Wind > 20 kt
SIGMETs :     Misc.  Thunderstorms  Icing  Turbulence  Mountain Waves  Volcanic Ashes







- Airport Elevation : 699 ft
- IATA code : PAD


EDLP - Paderborn Lippstadt

CURRENT METAR :
  • 201350Z 28006KT 240V310 4000 OVC009 15/13 Q1006

EXPIRED METARs :
  • 201320Z 27006KT 230V340 4500 BR OVC007 15/12 Q1006
  • 201250Z 28007KT 230V320 4500 BR FEW005 OVC007 15/13 Q1006
  • 201220Z 27007KT 230V310 3700 BR BKN004 BKN007 OVC011 14/12 Q1006
  • 201150Z 29006KT 240V350 2500 BR OVC003 14/12 Q1006
  • 201120Z 29006KT 260V330 1400 R24/P2000N BR OVC002 13/13 Q1006

TAF TAF EDLP
Valid from the 20 at 12:00 until the 21 at 12:00 UTC


201100Z 2012/2112 29007KT 0500 FG BKN001
BECMG 2012/2015 3000 BR SCT005 BKN010
TEMPO 2014/2021 2000 TSRA BKN005CB
BECMG 2021/2023 BKN007
BECMG 2023/2101 2000 RA BKN003
TEMPO 2102/2110 0300 RA FG OVC001
TEMPO 2107/2112 28012KT
No reported NOTAMs for that airfield.
3 SIGMETs reported for the Langen FIR (EDGG) :
 
SIGMET 2  cancelation
EDGG SIGMET 4 VALID 201419/201500 EDZF
EDGG LANGEN FIR CNL SIGMET 2 201350/201500=
Embedded thunderstorms and hail
EDGG SIGMET 3 VALID 201415/201700 EDZF
EDGG LANGEN FIR EMBD TSGR OBS WI N5120 E01030 - N4927 E01057 - N4926 E00845 - N5120 E00846 - N5120 E01030 TOP FL360 MOV SSW 15KT NC=
SIGMET 2  CANCELED :
Frequent thunderstorms and hail
EDGG SIGMET 2 VALID 201350/201500 EDZF
EDGG LANGEN FIR FRQ TSGR OBS APRX 35NM WID LINE BTN N5119 E00933 - N4949 E01038 TOP FL320 MOV SSW 20KT NC=



MET'MAP, your aeronautical weather chart ! - Copyright ORBIFLY December 2007 - Disclaimer

ORBIFLY MET'MAP TEAM :

Programming & Development : Alexandra Zaïnal
Concept & Development : Baudouin d'Aumeries
Co-Development & Prog : Marc-Olivier Méhu
Technical & hardware support : Manuel Goepfert

Contact : metmap@orbifly.com




SOURCES & CREDITS :

   NOAA